createdAt,value
2022-08-23T00:00:36.768Z,7.90
2022-08-23T00:01:47.891Z,7.87
2022-08-23T00:02:51.558Z,5.13
2022-08-23T00:03:56.292Z,5.83
2022-08-23T00:05:08.687Z,10.77
2022-08-23T00:06:11.476Z,10.57
2022-08-23T00:07:17.655Z,13.50
2022-08-23T00:08:19.336Z,6.73
2022-08-23T00:09:24.722Z,8.30
2022-08-23T00:10:26.422Z,7.80
2022-08-23T00:11:35.624Z,5.13
2022-08-23T00:12:40.084Z,4.47
2022-08-23T00:13:47.318Z,8.70
2022-08-23T00:14:54.308Z,8.90
2022-08-23T00:15:55.932Z,7.03
2022-08-23T00:16:59.873Z,5.80
2022-08-23T00:18:01.778Z,7.83
2022-08-23T00:19:05.651Z,10.20
2022-08-23T00:20:12.113Z,5.17
2022-08-23T00:21:13.817Z,6.93
2022-08-23T00:22:17.783Z,11.03
2022-08-23T00:23:19.417Z,8.40
2022-08-23T00:24:23.262Z,9.73
2022-08-23T00:25:24.904Z,6.03
2022-08-23T00:26:27.965Z,11.83
2022-08-23T00:27:29.600Z,4.70
2022-08-23T00:28:32.849Z,7.57
2022-08-23T00:29:38.789Z,5.47
2022-08-23T00:30:41.337Z,7.90
2022-08-23T00:31:42.921Z,14.10
2022-08-23T00:32:46.115Z,7.57
2022-08-23T00:33:47.740Z,8.00
2022-08-23T00:34:50.762Z,6.17
2022-08-23T00:35:52.734Z,7.40
2022-08-23T00:36:55.955Z,4.67
2022-08-23T00:38:31.922Z,6.73
2022-08-23T00:39:22.048Z,9.43
2022-08-23T00:40:23.870Z,5.97
2022-08-23T00:41:27.203Z,6.60
2022-08-23T00:42:51.912Z,7.97
2022-08-23T00:44:13.907Z,5.07
2022-08-23T00:45:38.267Z,10.20
2022-08-23T00:47:03.135Z,6.60
2022-08-23T00:48:07.690Z,5.33
2022-08-23T00:49:12.823Z,6.63
2022-08-23T00:50:24.595Z,8.03
2022-08-23T00:51:32.347Z,8.57
2022-08-23T00:52:57.731Z,10.67
2022-08-23T00:54:02.053Z,9.57
2022-08-23T00:55:05.416Z,7.27
2022-08-23T00:56:09.629Z,15.83
2022-08-23T00:57:17.968Z,9.60
2022-08-23T00:58:21.466Z,10.13
2022-08-23T00:59:24.350Z,6.43
2022-08-23T01:00:28.089Z,9.63
2022-08-23T01:01:30.874Z,12.83
2022-08-23T01:02:33.011Z,7.50
2022-08-23T01:03:40.365Z,13.90
2022-08-23T01:04:49.378Z,8.70
2022-08-23T01:05:57.293Z,6.43
2022-08-23T01:07:04.408Z,8.07
2022-08-23T01:08:07.249Z,5.77
2022-08-23T01:09:15.544Z,9.30
2022-08-23T01:10:24.231Z,9.57
2022-08-23T01:11:35.452Z,10.07
2022-08-23T01:12:41.381Z,7.03
2022-08-23T01:13:48.219Z,8.80
2022-08-23T01:14:56.185Z,9.40
2022-08-23T01:16:03.256Z,7.27
2022-08-23T01:17:10.805Z,6.83
2022-08-23T01:18:17.767Z,8.40
2022-08-23T01:19:25.247Z,7.70
2022-08-23T01:20:29.255Z,9.10
2022-08-23T01:21:37.346Z,7.23
2022-08-23T01:22:51.880Z,7.63
2022-08-23T01:23:59.370Z,7.33
2022-08-23T01:25:07.398Z,9.20
2022-08-23T01:26:12.779Z,8.03
2022-08-23T01:27:14.648Z,12.93
2022-08-23T01:28:18.232Z,6.90
2022-08-23T01:29:19.925Z,8.70
2022-08-23T01:30:24.668Z,5.40
2022-08-23T01:31:26.755Z,7.40
2022-08-23T01:32:30.193Z,8.13
2022-08-23T01:33:31.912Z,5.83
2022-08-23T01:34:35.170Z,8.70
2022-08-23T01:35:42.137Z,10.97
2022-08-23T01:36:44.857Z,9.43
2022-08-23T01:37:47.753Z,8.63
2022-08-23T01:38:49.401Z,6.57
2022-08-23T01:39:55.058Z,15.63
2022-08-23T01:40:56.852Z,7.80
2022-08-23T01:41:59.526Z,7.77
2022-08-23T01:43:02.017Z,8.17
2022-08-23T01:44:05.686Z,10.03
2022-08-23T01:45:10.191Z,10.47
2022-08-23T01:46:16.643Z,7.40
2022-08-23T01:47:18.506Z,12.37
2022-08-23T01:48:22.434Z,8.87
2022-08-23T01:49:24.195Z,7.70
2022-08-23T01:50:28.089Z,12.47
2022-08-23T01:51:29.912Z,8.47
2022-08-23T01:52:32.800Z,12.93
2022-08-23T01:53:34.562Z,9.13
2022-08-23T01:54:37.489Z,11.63
2022-08-23T01:55:42.123Z,8.23
2022-08-23T01:56:45.580Z,6.57
2022-08-23T01:57:51.171Z,7.67
2022-08-23T01:58:53.788Z,10.07
2022-08-23T01:59:55.845Z,9.50
2022-08-23T02:00:58.649Z,6.50
2022-08-23T02:02:00.503Z,9.83
2022-08-23T02:03:04.355Z,6.50
2022-08-23T02:04:05.995Z,10.50
2022-08-23T02:05:10.274Z,7.33
2022-08-23T02:06:11.945Z,8.73
2022-08-23T02:07:14.651Z,6.20
2022-08-23T02:08:34.998Z,6.13
2022-08-23T02:09:37.667Z,6.27
2022-08-23T02:10:40.701Z,9.43
2022-08-23T02:11:43.944Z,11.07
2022-08-23T02:12:46.894Z,9.10
2022-08-23T02:13:50.058Z,9.57
2022-08-23T02:14:52.105Z,9.47
2022-08-23T02:15:55.042Z,8.17
2022-08-23T02:17:03.905Z,6.23
2022-08-23T02:18:07.461Z,5.77
2022-08-23T02:19:11.768Z,7.77
2022-08-23T02:20:14.869Z,9.40
2022-08-23T02:21:16.651Z,9.60
2022-08-23T02:22:19.430Z,9.73
2022-08-23T02:23:24.611Z,8.60
2022-08-23T02:24:28.206Z,10.20
2022-08-23T02:25:29.829Z,9.37
2022-08-23T02:26:35.557Z,12.60
2022-08-23T02:27:38.420Z,7.40
2022-08-23T02:28:46.834Z,9.00
2022-08-23T02:29:50.112Z,9.70
2022-08-23T02:30:54.452Z,8.53
2022-08-23T02:31:57.891Z,6.93
2022-08-23T02:32:59.590Z,9.47
2022-08-23T02:36:44.046Z,9.83
2022-08-23T02:37:46.742Z,7.33
2022-08-23T02:38:48.494Z,6.23
2022-08-23T02:39:51.394Z,6.40
2022-08-23T02:41:00.709Z,11.13
2022-08-23T02:42:05.934Z,9.43
2022-08-23T02:43:08.480Z,6.93
2022-08-23T02:44:11.679Z,7.20
2022-08-23T02:45:13.732Z,11.03
2022-08-23T02:46:16.438Z,8.80
2022-08-23T02:47:18.910Z,8.80
2022-08-23T02:48:22.537Z,9.93
2022-08-23T02:49:24.278Z,8.57
2022-08-23T02:50:27.664Z,5.83
2022-08-23T02:51:29.498Z,6.87
2022-08-23T02:52:32.252Z,8.07
2022-08-23T02:53:34.530Z,6.10
2022-08-23T02:54:37.605Z,6.20
2022-08-23T02:55:39.410Z,7.57
2022-08-23T02:56:45.571Z,7.23
2022-08-23T02:57:48.868Z,6.03
2022-08-23T02:58:54.405Z,12.17
2022-08-23T02:59:58.017Z,5.77
2022-08-23T03:01:01.299Z,7.20
2022-08-23T03:02:03.518Z,5.30
2022-08-23T03:03:07.736Z,6.90
2022-08-23T03:04:11.477Z,7.43
2022-08-23T03:05:14.411Z,8.90
2022-08-23T03:06:25.390Z,7.03
2022-08-23T03:07:28.096Z,6.03
2022-08-23T03:08:30.795Z,7.90
2022-08-23T03:09:32.654Z,4.93
2022-08-23T03:10:35.541Z,8.43
2022-08-23T03:11:37.668Z,13.23
2022-08-23T03:12:40.401Z,6.80
2022-08-23T03:13:45.890Z,5.43
2022-08-23T03:14:49.963Z,6.93
2022-08-23T03:15:52.029Z,6.53
2022-08-23T03:16:54.746Z,11.50
2022-08-23T03:18:00.239Z,7.20
2022-08-23T03:19:03.230Z,6.37
2022-08-23T03:20:05.652Z,6.50
2022-08-23T03:21:10.023Z,7.70
2022-08-23T03:22:11.795Z,7.97
2022-08-23T03:23:14.540Z,7.37
2022-08-23T03:24:16.266Z,5.73
2022-08-23T03:25:19.076Z,7.67
2022-08-23T03:26:21.349Z,5.57
2022-08-23T03:27:24.095Z,5.23
2022-08-23T03:28:26.348Z,9.33
2022-08-23T03:29:31.968Z,6.27
2022-08-23T03:30:34.612Z,11.17
2022-08-23T03:31:37.405Z,6.70
2022-08-23T03:32:39.194Z,6.57
2022-08-23T03:33:52.700Z,8.53
2022-08-23T03:34:54.576Z,7.87
2022-08-23T03:36:00.010Z,10.00
2022-08-23T03:37:03.035Z,8.20
2022-08-23T03:38:04.791Z,9.20
2022-08-23T03:39:07.746Z,7.00
2022-08-23T03:40:10.685Z,7.60
2022-08-23T03:41:13.339Z,9.20
2022-08-23T03:42:15.161Z,6.83
2022-08-23T03:43:17.803Z,13.60
2022-08-23T03:44:19.443Z,10.90
2022-08-23T03:45:23.345Z,6.70
2022-08-23T03:46:25.073Z,8.40
2022-08-23T03:47:28.329Z,7.70
2022-08-23T03:48:30.044Z,8.87
2022-08-23T03:49:32.702Z,13.53
2022-08-23T03:50:35.277Z,8.30
2022-08-23T03:51:38.025Z,8.70
2022-08-23T03:52:40.803Z,5.70
2022-08-23T03:53:42.389Z,10.23
2022-08-23T03:54:44.970Z,8.50
2022-08-23T03:55:46.950Z,10.70
2022-08-23T03:56:55.669Z,9.87
2022-08-23T03:57:57.370Z,7.03
2022-08-23T03:59:02.777Z,13.67
2022-08-23T04:00:08.790Z,9.30
2022-08-23T04:01:15.149Z,10.17
2022-08-23T04:02:17.240Z,8.90
2022-08-23T04:03:19.994Z,7.00
2022-08-23T04:04:22.619Z,7.13
2022-08-23T04:05:25.315Z,8.17
2022-08-23T04:06:27.466Z,8.47
2022-08-23T04:07:30.116Z,10.10
2022-08-23T04:08:33.790Z,9.53
2022-08-23T04:09:36.716Z,11.23
2022-08-23T04:10:39.090Z,7.70
2022-08-23T04:11:41.977Z,9.20
2022-08-23T04:12:43.732Z,8.57
2022-08-23T04:13:47.535Z,8.87
2022-08-23T04:14:49.322Z,10.70
2022-08-23T04:15:52.192Z,8.10
2022-08-23T04:16:55.824Z,10.30
2022-08-23T04:18:00.031Z,11.30
2022-08-23T04:19:03.869Z,8.97
2022-08-23T04:20:08.622Z,10.77
2022-08-23T04:21:14.718Z,9.17
2022-08-23T04:22:19.092Z,18.93
2022-08-23T04:23:20.750Z,12.77
2022-08-23T04:24:23.327Z,11.07
2022-08-23T04:25:33.350Z,11.07
2022-08-23T04:26:37.747Z,11.07
2022-08-23T04:27:39.481Z,8.70
2022-08-23T04:28:42.112Z,9.73
2022-08-23T04:29:43.821Z,8.10
2022-08-23T04:30:46.982Z,8.20
2022-08-23T04:31:48.953Z,10.60
2022-08-23T04:32:53.196Z,10.17
2022-08-23T04:33:56.491Z,8.27
2022-08-23T04:34:59.627Z,7.83
2022-08-23T04:36:03.917Z,12.77
2022-08-23T04:37:09.426Z,10.43
2022-08-23T04:38:24.576Z,16.03
2022-08-23T04:39:28.532Z,10.10
2022-08-23T04:40:48.984Z,15.00
2022-08-23T04:42:14.296Z,12.90
2022-08-23T04:43:16.767Z,16.43
2022-08-23T04:44:19.692Z,9.27
2022-08-23T04:45:21.502Z,14.30
2022-08-23T04:46:24.449Z,10.60
2022-08-23T04:47:27.335Z,11.60
2022-08-23T04:48:30.282Z,10.00
2022-08-23T04:49:33.624Z,13.43
2022-08-23T04:50:36.003Z,14.53
2022-08-23T04:51:39.223Z,12.03
2022-08-23T04:52:40.832Z,11.40
2022-08-23T04:53:44.150Z,14.27
2022-08-23T04:54:46.644Z,13.83
2022-08-23T04:55:50.316Z,17.90
2022-08-23T04:56:52.083Z,12.20
2022-08-23T04:57:55.328Z,12.30
2022-08-23T04:58:57.478Z,12.83
2022-08-23T05:00:00.528Z,19.20
2022-08-23T05:01:05.331Z,12.70
2022-08-23T05:02:08.037Z,17.20
2022-08-23T05:03:09.816Z,17.43
2022-08-23T05:04:14.277Z,17.43
2022-08-23T05:05:17.297Z,14.67
2022-08-23T05:06:20.257Z,21.37
2022-08-23T05:07:21.853Z,14.40
2022-08-23T05:08:44.483Z,15.37
2022-08-23T05:09:46.176Z,16.40
2022-08-23T05:10:48.899Z,13.73
2022-08-23T05:11:50.705Z,17.57
2022-08-23T05:12:53.457Z,12.77
2022-08-23T05:13:55.316Z,25.33
2022-08-23T05:14:58.219Z,17.43
2022-08-23T05:16:00.711Z,17.93
2022-08-23T05:17:03.403Z,17.17
2022-08-23T05:18:06.051Z,20.47
2022-08-23T05:19:08.675Z,16.83
2022-08-23T05:20:11.987Z,13.60
2022-08-23T05:21:19.639Z,15.07
2022-08-23T05:22:21.782Z,15.87
2022-08-23T05:23:31.735Z,14.30
2022-08-23T05:24:34.014Z,15.37
2022-08-23T05:25:53.458Z,27.63
2022-08-23T05:26:55.315Z,19.83
2022-08-23T05:27:57.989Z,16.63
2022-08-23T05:29:00.695Z,15.23
2022-08-23T05:30:02.832Z,16.63
2022-08-23T05:31:10.456Z,14.90
2022-08-23T05:32:14.455Z,13.80
2022-08-23T05:33:16.048Z,15.47
2022-08-23T05:34:22.547Z,16.57
2022-08-23T05:35:25.898Z,12.03
2022-08-23T05:36:28.597Z,15.83
2022-08-23T05:37:30.199Z,14.97
2022-08-23T05:38:33.316Z,18.00
2022-08-23T05:39:37.247Z,14.00
2022-08-23T05:40:39.122Z,14.17
2022-08-23T05:41:41.891Z,17.77
2022-08-23T05:42:43.653Z,14.10
2022-08-23T05:43:47.121Z,16.57
2022-08-23T05:44:50.001Z,13.27
2022-08-23T05:46:00.029Z,11.43
2022-08-23T05:47:04.920Z,17.23
2022-08-23T05:48:13.624Z,13.70
2022-08-23T05:49:21.224Z,12.67
2022-08-23T05:50:23.077Z,14.20
2022-08-23T05:51:29.140Z,14.97
2022-08-23T05:52:30.819Z,11.70
2022-08-23T05:53:33.552Z,13.90
2022-08-23T05:54:35.841Z,12.03
2022-08-23T05:55:39.148Z,17.83
2022-08-23T05:56:43.039Z,13.30
2022-08-23T05:57:47.992Z,14.00
2022-08-23T05:58:52.162Z,12.73
2022-08-23T05:59:55.733Z,13.87
2022-08-23T06:00:57.437Z,11.63
2022-08-23T06:02:00.302Z,12.20
2022-08-23T06:03:01.862Z,17.27
2022-08-23T06:04:07.288Z,20.07
2022-08-23T06:05:09.835Z,19.03
2022-08-23T06:06:14.660Z,17.70
2022-08-23T06:07:17.763Z,13.37
2022-08-23T06:08:20.344Z,12.90
2022-08-23T06:09:22.112Z,17.17
2022-08-23T06:10:25.454Z,16.27
2022-08-23T06:11:29.547Z,20.63
2022-08-23T06:12:33.605Z,17.80
2022-08-23T06:13:40.925Z,19.43
2022-08-23T06:14:43.626Z,16.80
2022-08-23T06:15:45.246Z,18.30
2022-08-23T06:16:54.950Z,21.10
2022-08-23T06:17:57.443Z,16.77
2022-08-23T06:19:02.294Z,17.50
2022-08-23T06:20:05.905Z,17.77
2022-08-23T06:21:10.029Z,15.87
2022-08-23T06:22:12.650Z,16.17
2022-08-23T06:23:15.604Z,16.50
2022-08-23T06:24:18.210Z,13.50
2022-08-23T06:25:19.849Z,21.03
2022-08-23T06:26:25.519Z,18.30
2022-08-23T06:27:27.149Z,17.37
2022-08-23T06:28:32.174Z,14.00
2022-08-23T06:29:33.861Z,17.47
2022-08-23T06:30:39.794Z,19.33
2022-08-23T06:31:47.317Z,25.80
2022-08-23T06:32:51.370Z,19.27
2022-08-23T06:33:53.567Z,13.80
2022-08-23T06:35:12.352Z,20.03
2022-08-23T06:36:18.443Z,20.93
2022-08-23T06:37:21.206Z,19.90
2022-08-23T06:38:24.531Z,15.57
2022-08-23T06:39:29.039Z,20.10
2022-08-23T06:40:30.718Z,16.47
2022-08-23T06:41:34.488Z,16.20
2022-08-23T06:42:38.629Z,15.20
2022-08-23T06:43:40.863Z,26.27
2022-08-23T06:44:44.053Z,15.20
2022-08-23T06:45:48.448Z,18.20
2022-08-23T06:47:01.013Z,22.70
2022-08-23T06:48:03.130Z,16.57
2022-08-23T06:49:07.535Z,16.57
2022-08-23T06:50:09.899Z,16.07
2022-08-23T06:51:14.448Z,20.53
2022-08-23T06:52:17.141Z,17.83
2022-08-23T06:53:18.711Z,17.20
2022-08-23T06:54:26.565Z,15.97
2022-08-23T06:55:28.926Z,20.93
2022-08-23T06:56:31.895Z,20.77
2022-08-23T06:57:33.558Z,21.57
2022-08-23T06:58:36.226Z,33.77
2022-08-23T06:59:38.955Z,19.90
2022-08-23T07:00:40.638Z,16.73
2022-08-23T07:01:47.293Z,18.43
2022-08-23T07:02:50.372Z,17.90
2022-08-23T07:03:55.383Z,22.67
2022-08-23T07:04:58.172Z,19.90
2022-08-23T07:05:59.810Z,20.17
2022-08-23T07:07:03.310Z,18.77
2022-08-23T07:08:05.706Z,16.90
2022-08-23T07:09:08.677Z,16.63
2022-08-23T07:10:13.122Z,16.07
2022-08-23T07:11:19.028Z,15.57
2022-08-23T07:12:22.027Z,18.20
2022-08-23T07:13:23.773Z,22.40
2022-08-23T07:14:27.033Z,19.80
2022-08-23T07:15:29.686Z,18.43
2022-08-23T07:16:33.829Z,21.73
2022-08-23T07:17:36.540Z,26.37
2022-08-23T07:18:38.865Z,22.30
2022-08-23T07:19:43.940Z,24.77
2022-08-23T07:20:45.578Z,17.13
2022-08-23T07:21:49.377Z,21.60
2022-08-23T07:22:52.111Z,20.90
2022-08-23T07:23:53.939Z,19.60
2022-08-23T07:24:57.403Z,24.37
2022-08-23T07:26:01.122Z,16.73
2022-08-23T07:27:07.102Z,17.43
2022-08-23T07:28:11.735Z,20.20
2022-08-23T07:29:16.377Z,17.83
2022-08-23T07:30:18.121Z,22.97
2022-08-23T07:31:23.808Z,15.73
2022-08-23T07:32:25.616Z,19.83
2022-08-23T07:33:28.282Z,22.47
2022-08-23T07:34:33.981Z,20.33
2022-08-23T07:35:40.054Z,11.30
2022-08-23T07:36:45.271Z,15.63
2022-08-23T07:37:47.225Z,21.23
2022-08-23T07:38:51.616Z,23.90
2022-08-23T07:39:56.308Z,15.87
2022-08-23T07:41:03.549Z,20.30
2022-08-23T07:42:06.993Z,21.33
2022-08-23T07:43:25.825Z,24.67
2022-08-23T07:44:29.080Z,16.13
2022-08-23T07:45:31.449Z,18.03
2022-08-23T07:46:37.595Z,22.27
2022-08-23T07:47:39.276Z,21.10
2022-08-23T07:48:54.015Z,19.80
2022-08-23T07:49:57.266Z,16.17
2022-08-23T07:51:01.191Z,13.73
2022-08-23T07:52:05.667Z,14.77
2022-08-23T07:53:07.505Z,17.23
2022-08-23T07:54:12.533Z,15.87
2022-08-23T07:55:14.228Z,16.30
2022-08-23T07:56:20.377Z,21.80
2022-08-23T07:57:23.314Z,22.80
2022-08-23T07:58:25.698Z,25.30
2022-08-23T07:59:34.453Z,17.00
2022-08-23T08:00:36.834Z,20.33
2022-08-23T08:01:42.093Z,25.37
2022-08-23T08:02:43.808Z,21.90
2022-08-23T08:03:50.703Z,15.03
2022-08-23T08:04:53.322Z,18.83
2022-08-23T08:05:57.526Z,20.70
2022-08-23T08:07:18.302Z,18.07
2022-08-23T08:08:22.379Z,21.23
2022-08-23T08:09:24.938Z,17.60
2022-08-23T08:10:26.553Z,22.50
2022-08-23T08:11:35.147Z,14.90
2022-08-23T08:12:37.246Z,14.27
2022-08-23T08:13:40.577Z,22.03
2022-08-23T08:14:42.448Z,13.87
2022-08-23T08:15:45.060Z,18.17
2022-08-23T08:16:50.370Z,19.67
2022-08-23T08:17:53.123Z,18.70
2022-08-23T08:18:56.539Z,16.80
2022-08-23T08:19:59.217Z,17.47
2022-08-23T08:21:01.142Z,15.33
2022-08-23T08:22:03.725Z,22.17
2022-08-23T08:23:06.228Z,15.03
2022-08-23T08:24:10.324Z,16.67
2022-08-23T08:25:12.839Z,15.30
2022-08-23T08:26:16.000Z,15.70
2022-08-23T08:27:18.912Z,19.47
2022-08-23T08:28:21.458Z,15.23
2022-08-23T08:29:23.382Z,17.83
2022-08-23T08:30:26.185Z,10.70
2022-08-23T08:31:28.086Z,15.47
2022-08-23T08:32:30.720Z,24.30
2022-08-23T08:33:34.406Z,14.90
2022-08-23T08:34:38.577Z,14.57
2022-08-23T08:35:40.293Z,12.23
2022-08-23T08:36:46.366Z,18.93
2022-08-23T08:37:48.148Z,20.73
2022-08-23T08:38:54.363Z,15.00
2022-08-23T08:40:01.242Z,13.50
2022-08-23T08:41:12.400Z,17.90
2022-08-23T08:42:39.053Z,13.97
2022-08-23T08:43:55.133Z,13.30
2022-08-23T08:45:01.599Z,17.67
2022-08-23T08:46:08.731Z,11.77
2022-08-23T08:47:16.958Z,13.40
2022-08-23T08:48:23.462Z,13.47
2022-08-23T08:49:36.141Z,18.90
2022-08-23T08:50:41.359Z,19.20
2022-08-23T08:51:50.807Z,12.90
2022-08-23T08:53:00.529Z,11.60
2022-08-23T08:54:06.104Z,12.20
2022-08-23T08:55:14.773Z,28.53
2022-08-23T08:56:20.939Z,16.40
2022-08-23T08:57:27.793Z,28.10
2022-08-23T08:58:36.632Z,14.57
2022-08-23T08:59:46.929Z,14.87
2022-08-23T09:00:53.871Z,10.47
2022-08-23T09:02:00.015Z,15.73
2022-08-23T09:03:07.509Z,19.33
2022-08-23T09:04:10.643Z,17.77
2022-08-23T09:05:15.725Z,12.17
2022-08-23T09:06:25.616Z,11.67
2022-08-23T09:07:39.524Z,13.10
2022-08-23T09:08:51.420Z,15.73
2022-08-23T09:10:16.685Z,8.33
2022-08-23T09:11:33.224Z,14.97
2022-08-23T09:12:51.187Z,22.40
2022-08-23T09:14:29.463Z,26.27
2022-08-23T09:15:39.123Z,20.73
2022-08-23T09:16:51.518Z,16.77
2022-08-23T09:17:56.117Z,15.53
2022-08-23T09:19:00.686Z,13.03
2022-08-23T09:20:06.046Z,6.87
2022-08-23T09:21:10.325Z,13.93
2022-08-23T09:22:14.120Z,12.90
2022-08-23T09:23:21.563Z,10.87
2022-08-23T09:24:23.240Z,11.00
2022-08-23T09:25:25.967Z,12.10
2022-08-23T09:26:30.527Z,31.77
2022-08-23T09:27:33.331Z,14.23
2022-08-23T09:28:38.104Z,22.63
2022-08-23T09:29:50.886Z,18.13
2022-08-23T09:30:56.067Z,13.53
2022-08-23T09:32:02.243Z,7.93
2022-08-23T09:33:18.524Z,9.53
2022-08-23T09:34:22.760Z,49.23
2022-08-23T09:35:27.007Z,11.70
2022-08-23T09:36:33.903Z,12.63
2022-08-23T09:37:50.481Z,13.43
2022-08-23T09:38:55.218Z,11.30
2022-08-23T09:40:17.218Z,14.53
2022-08-23T09:41:25.067Z,12.93
2022-08-23T09:42:29.602Z,16.07
2022-08-23T09:43:48.236Z,8.10
2022-08-23T09:44:50.872Z,18.27
2022-08-23T09:45:57.425Z,16.83
2022-08-23T09:47:05.780Z,11.33
2022-08-23T09:48:15.123Z,10.93
2022-08-23T09:49:26.636Z,8.10
2022-08-23T09:50:31.985Z,11.50
2022-08-23T09:51:39.244Z,5.80
2022-08-23T09:52:47.601Z,7.93
2022-08-23T09:54:07.979Z,8.07
2022-08-23T09:55:13.658Z,9.23
2022-08-23T09:56:19.534Z,9.53
2022-08-23T09:57:26.124Z,7.77
2022-08-23T09:58:36.894Z,14.83
2022-08-23T09:59:43.977Z,13.40
2022-08-23T10:01:00.958Z,12.40
2022-08-23T10:02:04.066Z,14.37
2022-08-23T10:03:25.354Z,7.83
2022-08-23T10:04:39.654Z,10.20
2022-08-23T10:05:42.537Z,13.00
2022-08-23T10:06:46.252Z,6.70
2022-08-23T10:07:56.192Z,12.13
2022-08-23T10:09:02.087Z,7.43
2022-08-23T10:10:21.585Z,9.70
2022-08-23T10:11:27.982Z,7.33
2022-08-23T10:12:31.262Z,11.23
2022-08-23T10:13:34.944Z,12.17
2022-08-23T10:14:36.831Z,12.30
2022-08-23T10:15:53.422Z,7.33
2022-08-23T10:17:04.585Z,9.43
2022-08-23T10:18:15.867Z,8.03
2022-08-23T10:19:24.384Z,7.50
2022-08-23T10:20:37.230Z,13.93
2022-08-23T10:21:42.970Z,8.37
2022-08-23T10:22:48.728Z,12.27
2022-08-23T10:24:03.960Z,15.07
2022-08-23T10:25:12.437Z,11.03
2022-08-23T10:26:26.684Z,14.90
2022-08-23T10:27:57.014Z,6.17
2022-08-23T10:29:27.545Z,10.30
2022-08-23T10:30:42.730Z,14.30
2022-08-23T10:31:59.031Z,7.63
2022-08-23T10:33:09.425Z,8.97
2022-08-23T10:34:30.071Z,7.60
2022-08-23T10:35:40.283Z,10.03
2022-08-23T10:39:11.485Z,5.40
2022-08-23T10:40:20.660Z,9.73
2022-08-23T10:41:45.740Z,9.97
2022-08-23T10:43:00.044Z,9.00
2022-08-23T10:44:14.122Z,10.60
2022-08-23T10:45:29.881Z,8.53
2022-08-23T10:46:39.730Z,9.63
2022-08-23T10:47:59.138Z,10.90
2022-08-23T10:49:03.720Z,9.97
2022-08-23T10:50:08.208Z,8.10
2022-08-23T10:51:20.015Z,10.70
2022-08-23T10:52:34.398Z,9.20
2022-08-23T10:53:38.151Z,7.90
2022-08-23T10:54:49.493Z,7.47
2022-08-23T10:56:02.854Z,12.10
2022-08-23T10:57:07.455Z,18.10
2022-08-23T10:58:13.070Z,9.97
2022-08-23T10:59:20.276Z,7.30
2022-08-23T11:00:25.334Z,15.00
2022-08-23T11:01:36.073Z,5.90
2022-08-23T11:02:47.630Z,8.50
2022-08-23T11:04:01.987Z,7.33
2022-08-23T11:05:08.907Z,10.20
2022-08-23T11:06:47.943Z,9.30
2022-08-23T11:08:03.287Z,7.43
2022-08-23T11:09:07.917Z,6.50
2022-08-23T11:10:17.194Z,10.43
2022-08-23T11:11:40.811Z,7.67
2022-08-23T11:12:56.112Z,17.33
2022-08-23T11:13:57.830Z,6.87
2022-08-23T11:15:11.096Z,8.40
2022-08-23T11:16:23.054Z,9.20
2022-08-23T11:17:28.174Z,9.83
2022-08-23T11:18:43.060Z,9.33
2022-08-23T11:19:52.397Z,6.73
2022-08-23T11:21:06.775Z,7.20
2022-08-23T11:22:18.496Z,6.20
2022-08-23T11:23:36.766Z,11.17
2022-08-23T11:24:56.016Z,10.10
2022-08-23T11:25:57.912Z,7.73
2022-08-23T11:27:07.677Z,7.50
2022-08-23T11:28:39.481Z,9.50
2022-08-23T11:29:43.544Z,6.97
2022-08-23T11:30:50.680Z,11.20
2022-08-23T11:32:01.689Z,10.30
2022-08-23T11:33:15.243Z,12.47
2022-08-23T11:34:29.735Z,9.03
2022-08-23T11:35:43.073Z,8.60
2022-08-23T11:37:27.109Z,14.70
2022-08-23T11:39:11.044Z,8.00
2022-08-23T11:40:17.476Z,21.23
2022-08-23T11:41:25.917Z,7.10
2022-08-23T11:42:50.059Z,14.90
2022-08-23T11:44:22.030Z,12.70
2022-08-23T11:45:30.505Z,8.63
2022-08-23T11:46:35.697Z,15.40
2022-08-23T11:47:40.995Z,8.63
2022-08-23T11:48:50.553Z,8.53
2022-08-23T11:50:15.655Z,6.40
2022-08-23T11:51:28.894Z,8.47
2022-08-23T11:53:15.261Z,9.77
2022-08-23T11:54:36.310Z,8.97
2022-08-23T11:56:02.635Z,7.83
2022-08-23T11:57:19.109Z,8.97
2022-08-23T11:58:27.873Z,6.47
2022-08-23T12:00:02.611Z,6.80
2022-08-23T12:01:11.157Z,11.17
2022-08-23T12:02:33.756Z,7.93
2022-08-23T12:03:53.869Z,6.67
2022-08-23T12:04:59.867Z,6.60
2022-08-23T12:06:13.515Z,10.43
2022-08-23T12:08:07.993Z,10.23
2022-08-23T12:09:59.193Z,7.63
2022-08-23T12:11:08.529Z,5.97
2022-08-23T12:12:25.953Z,6.33
2022-08-23T12:13:44.663Z,7.13
2022-08-23T12:14:54.791Z,6.90
2022-08-23T12:16:16.364Z,8.50
2022-08-23T12:18:11.709Z,4.40
2022-08-23T12:19:29.326Z,5.73
2022-08-23T12:20:32.230Z,6.20
2022-08-23T12:21:47.399Z,8.53
2022-08-23T12:23:07.719Z,4.40
2022-08-23T12:24:17.690Z,5.43
2022-08-23T12:25:21.516Z,9.90
2022-08-23T12:26:28.583Z,4.87
2022-08-23T12:27:34.663Z,7.97
2022-08-23T12:28:44.044Z,7.70
2022-08-23T12:29:58.923Z,10.90
2022-08-23T12:31:08.104Z,4.00
2022-08-23T12:32:21.370Z,10.53
2022-08-23T12:33:37.343Z,7.23
2022-08-23T12:34:52.940Z,9.87
2022-08-23T12:36:00.896Z,8.00
2022-08-23T12:37:12.579Z,9.97
2022-08-23T12:38:25.556Z,10.30
2022-08-23T12:39:31.478Z,7.73
2022-08-23T12:40:42.043Z,6.17
2022-08-23T12:41:54.103Z,7.23
2022-08-23T12:43:06.737Z,8.20
2022-08-23T12:44:10.261Z,9.67
2022-08-23T12:45:15.551Z,6.87
2022-08-23T12:46:29.903Z,7.53
2022-08-23T12:47:33.107Z,5.90
2022-08-23T12:48:46.573Z,9.30
2022-08-23T12:49:58.463Z,7.30
2022-08-23T12:51:02.812Z,6.97
2022-08-23T12:52:09.142Z,6.23
2022-08-23T12:53:15.133Z,5.50
2022-08-23T12:54:21.215Z,6.37
2022-08-23T12:55:25.165Z,5.53
2022-08-23T12:56:32.098Z,6.83
2022-08-23T12:57:38.052Z,7.70
2022-08-23T12:58:49.124Z,8.30
2022-08-23T13:00:17.396Z,8.13
2022-08-23T13:01:22.920Z,6.30
2022-08-23T13:02:27.969Z,8.20
2022-08-23T13:03:35.959Z,7.00
2022-08-23T13:04:39.782Z,4.87
2022-08-23T13:05:46.660Z,5.17
2022-08-23T13:06:51.459Z,4.83
2022-08-23T13:07:54.701Z,7.20
2022-08-23T13:09:02.413Z,8.10
2022-08-23T13:10:08.357Z,4.50
2022-08-23T13:11:12.131Z,7.60
2022-08-23T13:12:15.919Z,7.50
2022-08-23T13:13:24.435Z,8.20
2022-08-23T13:14:35.689Z,6.73
2022-08-23T13:15:57.894Z,7.10
2022-08-23T13:17:13.402Z,6.30
2022-08-23T13:18:32.242Z,8.90
2022-08-23T13:19:34.027Z,6.80
2022-08-23T13:20:36.942Z,5.20
2022-08-23T13:21:40.351Z,9.53
2022-08-23T13:22:56.716Z,4.97
2022-08-23T13:24:01.074Z,11.67
2022-08-23T13:26:38.396Z,8.23
2022-08-23T13:27:53.441Z,16.00
2022-08-23T13:29:04.763Z,5.13
2022-08-23T13:30:22.249Z,3.30
2022-08-23T13:31:23.957Z,3.30
2022-08-23T13:32:37.378Z,4.73
2022-08-23T13:33:40.953Z,9.47
2022-08-23T13:34:48.661Z,6.93
2022-08-23T13:36:05.859Z,5.77
2022-08-23T13:37:22.565Z,5.10
2022-08-23T13:38:33.092Z,4.80
2022-08-23T13:39:34.941Z,5.07
2022-08-23T13:40:46.072Z,3.80
2022-08-23T13:41:47.790Z,5.20
2022-08-23T13:42:53.767Z,5.87
2022-08-23T13:43:57.049Z,3.20
2022-08-23T13:45:12.855Z,4.07
2022-08-23T13:46:22.756Z,2.77
2022-08-23T13:47:28.339Z,5.10
2022-08-23T13:48:34.665Z,3.90
2022-08-23T13:49:37.155Z,5.53
2022-08-23T13:50:42.107Z,8.30
2022-08-23T13:53:33.567Z,5.33
2022-08-23T13:54:50.893Z,6.53
2022-08-23T13:55:58.545Z,9.67
2022-08-23T13:57:01.856Z,4.43
2022-08-23T13:58:11.257Z,7.50
2022-08-23T13:59:23.413Z,6.63
2022-08-23T14:00:29.799Z,9.17
2022-08-23T14:01:40.642Z,6.13
2022-08-23T14:02:48.876Z,5.30
2022-08-23T14:03:51.079Z,7.67
2022-08-23T14:04:56.305Z,6.20
2022-08-23T14:05:58.225Z,7.20
2022-08-23T14:07:01.095Z,5.80
2022-08-23T14:08:03.381Z,6.77
2022-08-23T14:09:06.843Z,2.80
2022-08-23T14:10:09.332Z,4.10
2022-08-23T14:11:16.003Z,6.97
2022-08-23T14:12:21.708Z,7.40
2022-08-23T14:13:30.995Z,3.63
2022-08-23T14:14:34.641Z,5.50
2022-08-23T14:17:02.798Z,4.37
2022-08-23T14:18:05.363Z,2.90
2022-08-23T14:19:19.241Z,4.93
2022-08-23T14:20:34.109Z,4.27
2022-08-23T14:21:46.661Z,2.60
2022-08-23T14:22:48.504Z,5.13
2022-08-23T14:23:51.063Z,3.60
2022-08-23T14:24:52.620Z,4.60
2022-08-23T14:25:58.878Z,7.90
2022-08-23T14:27:03.390Z,7.70
2022-08-23T14:28:05.100Z,3.10
2022-08-23T14:29:07.667Z,4.43
2022-08-23T14:30:26.187Z,5.40
2022-08-23T14:31:32.399Z,4.67
2022-08-23T14:32:35.007Z,3.90
2022-08-23T14:33:36.694Z,7.17
2022-08-23T14:34:39.618Z,4.63
2022-08-23T14:35:41.972Z,5.10
2022-08-23T14:37:21.709Z,4.47
2022-08-23T14:38:07.444Z,5.43
2022-08-23T14:39:12.495Z,4.37
2022-08-23T14:40:17.822Z,5.00
2022-08-23T14:41:22.775Z,7.50
2022-08-23T14:42:26.749Z,3.87
2022-08-23T14:43:28.867Z,5.60
2022-08-23T14:44:35.808Z,5.80